sensor_id;sensor_type;location;lat;lon;timestamp;temperature;humidity
49124;DHT22;48506;48.202;16.274;2023-02-01T00:00:27;5.30;96.00
49124;DHT22;48506;48.202;16.274;2023-02-01T00:02:53;5.40;96.00
49124;DHT22;48506;48.202;16.274;2023-02-01T00:05:19;5.50;95.90
49124;DHT22;48506;48.202;16.274;2023-02-01T00:07:47;5.40;96.00
49124;DHT22;48506;48.202;16.274;2023-02-01T00:10:14;5.40;95.90
49124;DHT22;48506;48.202;16.274;2023-02-01T00:12:40;5.50;95.90
49124;DHT22;48506;48.202;16.274;2023-02-01T00:15:06;5.50;95.90
49124;DHT22;48506;48.202;16.274;2023-02-01T00:17:32;5.50;95.90
49124;DHT22;48506;48.202;16.274;2023-02-01T00:19:58;5.50;95.90
49124;DHT22;48506;48.202;16.274;2023-02-01T00:22:24;5.50;95.80
49124;DHT22;48506;48.202;16.274;2023-02-01T00:24:50;5.50;95.80
49124;DHT22;48506;48.202;16.274;2023-02-01T00:27:16;5.60;95.80
49124;DHT22;48506;48.202;16.274;2023-02-01T00:29:46;5.60;95.60
49124;DHT22;48506;48.202;16.274;2023-02-01T00:32:12;5.70;95.50
49124;DHT22;48506;48.202;16.274;2023-02-01T00:34:38;5.60;95.40
49124;DHT22;48506;48.202;16.274;2023-02-01T00:37:04;5.70;95.40
49124;DHT22;48506;48.202;16.274;2023-02-01T00:39:30;5.70;95.40
49124;DHT22;48506;48.202;16.274;2023-02-01T00:41:56;5.70;95.30
49124;DHT22;48506;48.202;16.274;2023-02-01T00:44:21;5.70;95.30
49124;DHT22;48506;48.202;16.274;2023-02-01T00:46:47;5.80;95.20
49124;DHT22;48506;48.202;16.274;2023-02-01T00:49:13;5.70;95.20
49124;DHT22;48506;48.202;16.274;2023-02-01T00:51:39;5.70;95.30
49124;DHT22;48506;48.202;16.274;2023-02-01T00:54:05;5.70;95.20
49124;DHT22;48506;48.202;16.274;2023-02-01T00:56:31;5.70;95.20
49124;DHT22;48506;48.202;16.274;2023-02-01T00:58:57;5.70;95.20
49124;DHT22;48506;48.202;16.274;2023-02-01T01:01:25;5.70;95.20
49124;DHT22;48506;48.202;16.274;2023-02-01T01:03:55;5.70;95.20
49124;DHT22;48506;48.202;16.274;2023-02-01T01:06:26;5.80;95.20
49124;DHT22;48506;48.202;16.274;2023-02-01T01:08:53;5.70;95.20
49124;DHT22;48506;48.202;16.274;2023-02-01T01:11:23;5.70;95.20
49124;DHT22;48506;48.202;16.274;2023-02-01T01:13:51;5.70;95.30
49124;DHT22;48506;48.202;16.274;2023-02-01T01:16:18;5.70;95.20
49124;DHT22;48506;48.202;16.274;2023-02-01T01:18:45;5.70;95.20
49124;DHT22;48506;48.202;16.274;2023-02-01T01:21:13;5.80;95.20
49124;DHT22;48506;48.202;16.274;2023-02-01T01:23:39;5.80;95.30
49124;DHT22;48506;48.202;16.274;2023-02-01T01:26:17;5.80;95.20
49124;DHT22;48506;48.202;16.274;2023-02-01T01:28:44;5.80;95.10
49124;DHT22;48506;48.202;16.274;2023-02-01T01:31:12;5.80;95.00
49124;DHT22;48506;48.202;16.274;2023-02-01T01:33:38;5.90;95.00
49124;DHT22;48506;48.202;16.274;2023-02-01T01:36:05;5.80;95.00
49124;DHT22;48506;48.202;16.274;2023-02-01T01:38:31;5.80;95.00
49124;DHT22;48506;48.202;16.274;2023-02-01T01:40:57;5.80;95.10
49124;DHT22;48506;48.202;16.274;2023-02-01T01:43:23;5.80;95.10
49124;DHT22;48506;48.202;16.274;2023-02-01T01:45:50;5.80;95.00
49124;DHT22;48506;48.202;16.274;2023-02-01T01:48:23;5.80;95.10
49124;DHT22;48506;48.202;16.274;2023-02-01T01:51:03;5.80;95.10
49124;DHT22;48506;48.202;16.274;2023-02-01T01:53:54;5.80;95.30
49124;DHT22;48506;48.202;16.274;2023-02-01T01:56:22;5.70;95.30
49124;DHT22;48506;48.202;16.274;2023-02-01T01:58:48;5.70;95.40
49124;DHT22;48506;48.202;16.274;2023-02-01T02:01:15;5.70;95.40
49124;DHT22;48506;48.202;16.274;2023-02-01T02:03:43;5.70;95.40
49124;DHT22;48506;48.202;16.274;2023-02-01T02:06:22;5.80;95.40
49124;DHT22;48506;48.202;16.274;2023-02-01T02:08:51;5.80;95.40
49124;DHT22;48506;48.202;16.274;2023-02-01T02:11:17;5.80;95.40
49124;DHT22;48506;48.202;16.274;2023-02-01T02:13:48;5.80;95.40
49124;DHT22;48506;48.202;16.274;2023-02-01T02:19:47;5.80;95.50
49124;DHT22;48506;48.202;16.274;2023-02-01T02:36:17;5.80;95.60
49124;DHT22;48506;48.202;16.274;2023-02-01T02:39:24;5.80;95.60
49124;DHT22;48506;48.202;16.274;2023-02-01T02:42:01;5.80;95.70
49124;DHT22;48506;48.202;16.274;2023-02-01T02:48:21;5.80;95.80
49124;DHT22;48506;48.202;16.274;2023-02-01T02:50:53;5.80;95.80
49124;DHT22;48506;48.202;16.274;2023-02-01T02:53:54;5.80;95.90
49124;DHT22;48506;48.202;16.274;2023-02-01T02:56:41;5.80;96.00
49124;DHT22;48506;48.202;16.274;2023-02-01T02:59:27;5.80;96.00
49124;DHT22;48506;48.202;16.274;2023-02-01T03:02:13;5.80;96.00
49124;DHT22;48506;48.202;16.274;2023-02-01T03:04:57;5.80;96.00
49124;DHT22;48506;48.202;16.274;2023-02-01T03:13:33;5.70;96.20
49124;DHT22;48506;48.202;16.274;2023-02-01T03:16:12;5.70;96.30
49124;DHT22;48506;48.202;16.274;2023-02-01T03:19:03;5.60;96.40
49124;DHT22;48506;48.202;16.274;2023-02-01T03:25:17;5.60;96.50
49124;DHT22;48506;48.202;16.274;2023-02-01T03:29:52;5.60;96.60
49124;DHT22;48506;48.202;16.274;2023-02-01T03:32:20;5.60;96.50
49124;DHT22;48506;48.202;16.274;2023-02-01T03:34:48;5.60;96.50
49124;DHT22;48506;48.202;16.274;2023-02-01T03:37:23;5.60;96.30
49124;DHT22;48506;48.202;16.274;2023-02-01T03:40:07;5.60;96.40
49124;DHT22;48506;48.202;16.274;2023-02-01T03:42:46;5.60;96.50
49124;DHT22;48506;48.202;16.274;2023-02-01T03:45:25;5.60;96.40
49124;DHT22;48506;48.202;16.274;2023-02-01T03:47:54;5.60;96.30
49124;DHT22;48506;48.202;16.274;2023-02-01T03:50:22;5.60;96.30
49124;DHT22;48506;48.202;16.274;2023-02-01T03:55:50;5.70;96.30
49124;DHT22;48506;48.202;16.274;2023-02-01T03:58:21;5.70;96.20
49124;DHT22;48506;48.202;16.274;2023-02-01T04:00:53;5.70;96.20
49124;DHT22;48506;48.202;16.274;2023-02-01T04:03:19;5.80;96.00
49124;DHT22;48506;48.202;16.274;2023-02-01T04:05:48;5.80;95.90
49124;DHT22;48506;48.202;16.274;2023-02-01T04:08:14;5.80;96.10
49124;DHT22;48506;48.202;16.274;2023-02-01T04:10:40;5.80;96.00
49124;DHT22;48506;48.202;16.274;2023-02-01T04:13:06;5.90;96.00
49124;DHT22;48506;48.202;16.274;2023-02-01T04:15:33;5.90;95.80
49124;DHT22;48506;48.202;16.274;2023-02-01T04:18:01;6.00;95.80
49124;DHT22;48506;48.202;16.274;2023-02-01T04:20:27;6.00;95.70
49124;DHT22;48506;48.202;16.274;2023-02-01T04:22:53;6.00;95.70
49124;DHT22;48506;48.202;16.274;2023-02-01T04:25:19;6.00;95.70
49124;DHT22;48506;48.202;16.274;2023-02-01T04:27:45;6.10;95.70
49124;DHT22;48506;48.202;16.274;2023-02-01T04:30:12;6.10;95.60
49124;DHT22;48506;48.202;16.274;2023-02-01T04:32:38;6.10;95.60
49124;DHT22;48506;48.202;16.274;2023-02-01T04:35:06;6.20;95.60
49124;DHT22;48506;48.202;16.274;2023-02-01T04:37:32;6.20;95.50
49124;DHT22;48506;48.202;16.274;2023-02-01T04:39:58;6.20;95.70
49124;DHT22;48506;48.202;16.274;2023-02-01T04:42:24;6.20;95.70
49124;DHT22;48506;48.202;16.274;2023-02-01T04:44:51;6.20;95.70
49124;DHT22;48506;48.202;16.274;2023-02-01T04:47:16;6.20;95.80
49124;DHT22;48506;48.202;16.274;2023-02-01T04:49:42;6.20;95.80
49124;DHT22;48506;48.202;16.274;2023-02-01T04:52:09;6.20;95.80
49124;DHT22;48506;48.202;16.274;2023-02-01T04:54:35;6.20;95.70
49124;DHT22;48506;48.202;16.274;2023-02-01T04:57:01;6.20;95.80
49124;DHT22;48506;48.202;16.274;2023-02-01T04:59:26;6.20;95.90
49124;DHT22;48506;48.202;16.274;2023-02-01T05:01:53;6.30;95.80
49124;DHT22;48506;48.202;16.274;2023-02-01T05:04:19;6.20;95.80
49124;DHT22;48506;48.202;16.274;2023-02-01T05:06:45;6.30;95.90
49124;DHT22;48506;48.202;16.274;2023-02-01T05:09:11;6.30;95.90
49124;DHT22;48506;48.202;16.274;2023-02-01T05:11:37;6.30;95.90
49124;DHT22;48506;48.202;16.274;2023-02-01T05:14:22;6.30;96.00
49124;DHT22;48506;48.202;16.274;2023-02-01T05:16:47;6.30;96.10
49124;DHT22;48506;48.202;16.274;2023-02-01T05:19:13;6.30;96.10
49124;DHT22;48506;48.202;16.274;2023-02-01T05:21:39;6.40;96.20
49124;DHT22;48506;48.202;16.274;2023-02-01T05:24:07;6.30;96.20
49124;DHT22;48506;48.202;16.274;2023-02-01T05:26:37;6.40;96.40
49124;DHT22;48506;48.202;16.274;2023-02-01T05:29:04;6.40;96.20
49124;DHT22;48506;48.202;16.274;2023-02-01T05:31:32;6.40;96.30
49124;DHT22;48506;48.202;16.274;2023-02-01T05:33:58;6.40;96.40
49124;DHT22;48506;48.202;16.274;2023-02-01T05:36:27;6.40;97.00
49124;DHT22;48506;48.202;16.274;2023-02-01T05:38:53;6.40;96.90
49124;DHT22;48506;48.202;16.274;2023-02-01T05:41:19;6.30;97.30
49124;DHT22;48506;48.202;16.274;2023-02-01T05:43:44;6.20;97.50
49124;DHT22;48506;48.202;16.274;2023-02-01T05:46:10;6.20;97.60
49124;DHT22;48506;48.202;16.274;2023-02-01T05:48:39;6.20;97.60
49124;DHT22;48506;48.202;16.274;2023-02-01T05:51:05;6.20;97.40
49124;DHT22;48506;48.202;16.274;2023-02-01T05:53:31;6.20;97.20
49124;DHT22;48506;48.202;16.274;2023-02-01T05:55:57;6.30;97.00
49124;DHT22;48506;48.202;16.274;2023-02-01T05:58:23;6.30;96.90
49124;DHT22;48506;48.202;16.274;2023-02-01T06:00:49;6.30;96.80
49124;DHT22;48506;48.202;16.274;2023-02-01T06:03:15;6.40;96.50
49124;DHT22;48506;48.202;16.274;2023-02-01T06:05:43;6.40;96.60
49124;DHT22;48506;48.202;16.274;2023-02-01T06:08:10;6.40;96.50
49124;DHT22;48506;48.202;16.274;2023-02-01T06:10:36;6.40;96.60
49124;DHT22;48506;48.202;16.274;2023-02-01T06:13:02;6.40;96.50
49124;DHT22;48506;48.202;16.274;2023-02-01T06:15:28;6.40;96.40
49124;DHT22;48506;48.202;16.274;2023-02-01T06:17:54;6.40;96.30
49124;DHT22;48506;48.202;16.274;2023-02-01T06:20:20;6.40;96.30
49124;DHT22;48506;48.202;16.274;2023-02-01T06:22:47;6.40;96.20
49124;DHT22;48506;48.202;16.274;2023-02-01T06:25:13;6.50;96.10
49124;DHT22;48506;48.202;16.274;2023-02-01T06:27:39;6.50;95.90
49124;DHT22;48506;48.202;16.274;2023-02-01T06:30:06;6.50;95.90
49124;DHT22;48506;48.202;16.274;2023-02-01T06:32:32;6.50;96.10
49124;DHT22;48506;48.202;16.274;2023-02-01T06:34:58;6.50;96.00
49124;DHT22;48506;48.202;16.274;2023-02-01T06:37:26;6.50;95.90
49124;DHT22;48506;48.202;16.274;2023-02-01T06:39:55;6.60;95.80
49124;DHT22;48506;48.202;16.274;2023-02-01T06:42:21;6.60;95.60
49124;DHT22;48506;48.202;16.274;2023-02-01T06:44:47;6.60;95.70
49124;DHT22;48506;48.202;16.274;2023-02-01T06:47:13;6.60;95.60
49124;DHT22;48506;48.202;16.274;2023-02-01T06:49:39;6.60;95.40
49124;DHT22;48506;48.202;16.274;2023-02-01T06:52:06;6.70;95.60
49124;DHT22;48506;48.202;16.274;2023-02-01T06:54:32;6.70;95.80
49124;DHT22;48506;48.202;16.274;2023-02-01T06:56:59;6.70;95.90
49124;DHT22;48506;48.202;16.274;2023-02-01T06:59:25;6.60;96.00
49124;DHT22;48506;48.202;16.274;2023-02-01T07:01:51;6.70;96.00
49124;DHT22;48506;48.202;16.274;2023-02-01T07:04:17;6.70;96.00
49124;DHT22;48506;48.202;16.274;2023-02-01T07:06:43;6.70;95.90
49124;DHT22;48506;48.202;16.274;2023-02-01T07:09:09;6.60;96.10
49124;DHT22;48506;48.202;16.274;2023-02-01T07:11:35;6.60;95.90
49124;DHT22;48506;48.202;16.274;2023-02-01T07:14:03;6.60;96.20
49124;DHT22;48506;48.202;16.274;2023-02-01T07:16:29;6.60;96.10
49124;DHT22;48506;48.202;16.274;2023-02-01T07:18:56;6.60;95.80
49124;DHT22;48506;48.202;16.274;2023-02-01T07:21:22;6.70;96.00
49124;DHT22;48506;48.202;16.274;2023-02-01T07:23:48;6.70;95.70
49124;DHT22;48506;48.202;16.274;2023-02-01T07:26:15;6.80;95.80
49124;DHT22;48506;48.202;16.274;2023-02-01T07:28:42;6.80;95.70
49124;DHT22;48506;48.202;16.274;2023-02-01T07:31:18;6.80;95.60
49124;DHT22;48506;48.202;16.274;2023-02-01T07:33:47;6.80;95.50
49124;DHT22;48506;48.202;16.274;2023-02-01T07:36:15;6.80;95.40
49124;DHT22;48506;48.202;16.274;2023-02-01T07:38:42;6.80;95.40
49124;DHT22;48506;48.202;16.274;2023-02-01T07:41:08;6.80;95.50
49124;DHT22;48506;48.202;16.274;2023-02-01T07:43:35;6.90;95.30
49124;DHT22;48506;48.202;16.274;2023-02-01T07:46:02;6.90;95.20
49124;DHT22;48506;48.202;16.274;2023-02-01T07:48:29;6.80;95.20
49124;DHT22;48506;48.202;16.274;2023-02-01T07:51:20;6.90;95.20
49124;DHT22;48506;48.202;16.274;2023-02-01T07:53:45;6.90;95.20
49124;DHT22;48506;48.202;16.274;2023-02-01T07:56:19;6.90;95.10
49124;DHT22;48506;48.202;16.274;2023-02-01T07:58:53;6.90;95.10
49124;DHT22;48506;48.202;16.274;2023-02-01T08:01:22;6.90;95.20
49124;DHT22;48506;48.202;16.274;2023-02-01T08:03:54;6.90;95.40
49124;DHT22;48506;48.202;16.274;2023-02-01T08:06:22;7.00;95.10
49124;DHT22;48506;48.202;16.274;2023-02-01T08:08:50;6.90;95.40
49124;DHT22;48506;48.202;16.274;2023-02-01T08:11:17;6.90;96.10
49124;DHT22;48506;48.202;16.274;2023-02-01T08:13:44;6.80;96.30
49124;DHT22;48506;48.202;16.274;2023-02-01T08:16:12;6.80;96.20
49124;DHT22;48506;48.202;16.274;2023-02-01T08:18:39;6.80;96.20
49124;DHT22;48506;48.202;16.274;2023-02-01T08:21:11;6.80;96.10
49124;DHT22;48506;48.202;16.274;2023-02-01T08:23:39;6.90;96.00
49124;DHT22;48506;48.202;16.274;2023-02-01T08:26:20;7.00;95.70
49124;DHT22;48506;48.202;16.274;2023-02-01T08:28:50;7.00;95.90
49124;DHT22;48506;48.202;16.274;2023-02-01T08:31:19;7.00;95.80
49124;DHT22;48506;48.202;16.274;2023-02-01T08:33:52;7.10;95.50
49124;DHT22;48506;48.202;16.274;2023-02-01T08:36:19;7.20;95.40
49124;DHT22;48506;48.202;16.274;2023-02-01T08:38:46;7.30;95.30
49124;DHT22;48506;48.202;16.274;2023-02-01T08:41:20;7.30;95.00
49124;DHT22;48506;48.202;16.274;2023-02-01T08:43:47;7.30;94.80
49124;DHT22;48506;48.202;16.274;2023-02-01T08:46:15;7.40;94.70
49124;DHT22;48506;48.202;16.274;2023-02-01T08:48:41;7.40;94.50
49124;DHT22;48506;48.202;16.274;2023-02-01T08:51:10;7.40;94.20
49124;DHT22;48506;48.202;16.274;2023-02-01T08:53:38;7.40;94.30
49124;DHT22;48506;48.202;16.274;2023-02-01T08:56:07;7.40;94.20
49124;DHT22;48506;48.202;16.274;2023-02-01T08:58:34;7.30;94.20
49124;DHT22;48506;48.202;16.274;2023-02-01T09:01:08;7.40;94.00
49124;DHT22;48506;48.202;16.274;2023-02-01T09:03:35;7.40;94.20
49124;DHT22;48506;48.202;16.274;2023-02-01T09:06:07;7.30;94.20
49124;DHT22;48506;48.202;16.274;2023-02-01T09:08:34;7.40;94.10
49124;DHT22;48506;48.202;16.274;2023-02-01T09:11:05;7.40;93.80
49124;DHT22;48506;48.202;16.274;2023-02-01T09:13:32;7.40;93.90
49124;DHT22;48506;48.202;16.274;2023-02-01T09:15:59;7.40;94.30
49124;DHT22;48506;48.202;16.274;2023-02-01T09:18:25;7.30;94.30
49124;DHT22;48506;48.202;16.274;2023-02-01T09:20:52;7.30;94.30
49124;DHT22;48506;48.202;16.274;2023-02-01T09:23:18;7.30;94.50
49124;DHT22;48506;48.202;16.274;2023-02-01T09:25:46;7.30;94.80
49124;DHT22;48506;48.202;16.274;2023-02-01T09:28:12;7.30;94.50
49124;DHT22;48506;48.202;16.274;2023-02-01T09:30:38;7.30;94.60
49124;DHT22;48506;48.202;16.274;2023-02-01T09:33:04;7.30;94.60
49124;DHT22;48506;48.202;16.274;2023-02-01T09:35:30;7.30;94.60
49124;DHT22;48506;48.202;16.274;2023-02-01T09:37:58;7.40;94.70
49124;DHT22;48506;48.202;16.274;2023-02-01T09:40:24;7.40;94.70
49124;DHT22;48506;48.202;16.274;2023-02-01T09:43:04;7.30;94.50
49124;DHT22;48506;48.202;16.274;2023-02-01T09:48:24;7.30;95.30
49124;DHT22;48506;48.202;16.274;2023-02-01T09:50:55;7.10;95.80
49124;DHT22;48506;48.202;16.274;2023-02-01T09:53:34;7.10;95.90
49124;DHT22;48506;48.202;16.274;2023-02-01T09:56:18;7.10;96.10
49124;DHT22;48506;48.202;16.274;2023-02-01T09:59:01;7.10;96.10
49124;DHT22;48506;48.202;16.274;2023-02-01T10:01:31;7.10;95.80
49124;DHT22;48506;48.202;16.274;2023-02-01T10:04:07;7.00;96.10
49124;DHT22;48506;48.202;16.274;2023-02-01T10:09:44;7.10;96.00
49124;DHT22;48506;48.202;16.274;2023-02-01T10:18:07;7.30;95.90
49124;DHT22;48506;48.202;16.274;2023-02-01T10:23:47;7.40;95.40
49124;DHT22;48506;48.202;16.274;2023-02-01T10:26:20;7.40;95.30
49124;DHT22;48506;48.202;16.274;2023-02-01T10:28:56;7.50;95.30
49124;DHT22;48506;48.202;16.274;2023-02-01T10:31:31;7.70;95.40
49124;DHT22;48506;48.202;16.274;2023-02-01T10:34:00;7.70;95.10
49124;DHT22;48506;48.202;16.274;2023-02-01T10:36:41;7.80;95.00
49124;DHT22;48506;48.202;16.274;2023-02-01T10:39:10;8.00;94.90
49124;DHT22;48506;48.202;16.274;2023-02-01T10:41:39;8.20;94.80
49124;DHT22;48506;48.202;16.274;2023-02-01T10:44:14;8.20;94.60
49124;DHT22;48506;48.202;16.274;2023-02-01T10:46:41;8.30;94.00
49124;DHT22;48506;48.202;16.274;2023-02-01T10:49:18;8.30;94.20
49124;DHT22;48506;48.202;16.274;2023-02-01T10:51:58;8.20;94.20
49124;DHT22;48506;48.202;16.274;2023-02-01T10:54:38;8.20;94.20
49124;DHT22;48506;48.202;16.274;2023-02-01T10:57:19;8.00;94.70
49124;DHT22;48506;48.202;16.274;2023-02-01T10:59:45;7.90;95.60
49124;DHT22;48506;48.202;16.274;2023-02-01T11:02:27;7.70;96.30
49124;DHT22;48506;48.202;16.274;2023-02-01T11:05:06;7.60;96.50
49124;DHT22;48506;48.202;16.274;2023-02-01T11:07:36;7.50;97.40
49124;DHT22;48506;48.202;16.274;2023-02-01T11:10:03;7.40;97.50
49124;DHT22;48506;48.202;16.274;2023-02-01T11:12:35;7.40;97.80
49124;DHT22;48506;48.202;16.274;2023-02-01T11:15:23;7.30;97.50
49124;DHT22;48506;48.202;16.274;2023-02-01T11:17:52;7.30;98.00
49124;DHT22;48506;48.202;16.274;2023-02-01T11:23:00;7.20;97.90
49124;DHT22;48506;48.202;16.274;2023-02-01T11:25:26;7.20;98.10
49124;DHT22;48506;48.202;16.274;2023-02-01T11:27:54;7.10;98.20
49124;DHT22;48506;48.202;16.274;2023-02-01T11:30:36;7.00;98.40
49124;DHT22;48506;48.202;16.274;2023-02-01T11:33:05;7.00;98.70
49124;DHT22;48506;48.202;16.274;2023-02-01T11:35:37;6.90;98.70
49124;DHT22;48506;48.202;16.274;2023-02-01T11:38:30;6.80;98.80
49124;DHT22;48506;48.202;16.274;2023-02-01T11:41:13;6.70;99.20
49124;DHT22;48506;48.202;16.274;2023-02-01T11:43:58;6.60;99.50
49124;DHT22;48506;48.202;16.274;2023-02-01T11:46:32;6.70;99.50
49124;DHT22;48506;48.202;16.274;2023-02-01T11:49:34;6.60;99.80
49124;DHT22;48506;48.202;16.274;2023-02-01T11:52:26;6.60;99.90
49124;DHT22;48506;48.202;16.274;2023-02-01T12:06:08;6.80;99.90
49124;DHT22;48506;48.202;16.274;2023-02-01T12:09:04;7.00;99.90
49124;DHT22;48506;48.202;16.274;2023-02-01T12:22:32;7.40;99.50
49124;DHT22;48506;48.202;16.274;2023-02-01T12:41:45;7.50;99.20
49124;DHT22;48506;48.202;16.274;2023-02-01T12:44:42;7.80;98.80
49124;DHT22;48506;48.202;16.274;2023-02-01T12:47:29;8.40;98.60
49124;DHT22;48506;48.202;16.274;2023-02-01T12:50:01;9.20;97.20
49124;DHT22;48506;48.202;16.274;2023-02-01T12:52:38;9.40;96.60
49124;DHT22;48506;48.202;16.274;2023-02-01T12:58:15;9.60;96.00
49124;DHT22;48506;48.202;16.274;2023-02-01T13:00:52;10.00;95.00
49124;DHT22;48506;48.202;16.274;2023-02-01T13:06:15;9.50;94.40
49124;DHT22;48506;48.202;16.274;2023-02-01T13:09:04;9.30;94.50
49124;DHT22;48506;48.202;16.274;2023-02-01T13:11:38;9.50;94.50
49124;DHT22;48506;48.202;16.274;2023-02-01T13:14:28;9.40;94.70
49124;DHT22;48506;48.202;16.274;2023-02-01T13:17:29;9.30;94.90
49124;DHT22;48506;48.202;16.274;2023-02-01T13:20:02;10.60;94.80
49124;DHT22;48506;48.202;16.274;2023-02-01T13:22:33;12.40;91.30
49124;DHT22;48506;48.202;16.274;2023-02-01T13:27:46;13.80;81.90
49124;DHT22;48506;48.202;16.274;2023-02-01T13:30:34;13.90;80.40
49124;DHT22;48506;48.202;16.274;2023-02-01T13:35:57;13.50;78.30
49124;DHT22;48506;48.202;16.274;2023-02-01T13:41:32;10.90;83.60
49124;DHT22;48506;48.202;16.274;2023-02-01T13:44:10;10.00;86.70
49124;DHT22;48506;48.202;16.274;2023-02-01T13:46:41;9.50;87.80
49124;DHT22;48506;48.202;16.274;2023-02-01T13:49:28;9.10;90.00
49124;DHT22;48506;48.202;16.274;2023-02-01T13:51:57;9.40;91.00
49124;DHT22;48506;48.202;16.274;2023-02-01T13:56:55;10.50;89.60
49124;DHT22;48506;48.202;16.274;2023-02-01T14:16:15;16.30;75.60
49124;DHT22;48506;48.202;16.274;2023-02-01T14:44:51;11.70;78.60
49124;DHT22;48506;48.202;16.274;2023-02-01T14:49:56;11.70;79.30
49124;DHT22;48506;48.202;16.274;2023-02-01T14:52:39;11.60;80.20
49124;DHT22;48506;48.202;16.274;2023-02-01T14:55:27;12.00;80.50
49124;DHT22;48506;48.202;16.274;2023-02-01T14:57:57;11.80;78.80
49124;DHT22;48506;48.202;16.274;2023-02-01T15:00:29;10.90;80.70
49124;DHT22;48506;48.202;16.274;2023-02-01T15:03:20;10.20;83.20
49124;DHT22;48506;48.202;16.274;2023-02-01T15:05:55;9.50;85.90
49124;DHT22;48506;48.202;16.274;2023-02-01T15:08:27;8.90;88.40
49124;DHT22;48506;48.202;16.274;2023-02-01T15:10:54;8.40;90.20
49124;DHT22;48506;48.202;16.274;2023-02-01T15:13:23;8.10;90.90
49124;DHT22;48506;48.202;16.274;2023-02-01T15:16:25;7.80;91.50
49124;DHT22;48506;48.202;16.274;2023-02-01T15:19:09;7.60;92.20
49124;DHT22;48506;48.202;16.274;2023-02-01T15:21:46;7.40;92.60
49124;DHT22;48506;48.202;16.274;2023-02-01T15:24:33;7.30;93.20
49124;DHT22;48506;48.202;16.274;2023-02-01T15:27:05;7.20;93.30
49124;DHT22;48506;48.202;16.274;2023-02-01T15:29:32;7.10;93.60
49124;DHT22;48506;48.202;16.274;2023-02-01T15:31:59;7.00;93.90
49124;DHT22;48506;48.202;16.274;2023-02-01T15:34:46;7.00;93.90
49124;DHT22;48506;48.202;16.274;2023-02-01T15:37:15;7.00;94.30
49124;DHT22;48506;48.202;16.274;2023-02-01T15:42:53;7.00;93.90
49124;DHT22;48506;48.202;16.274;2023-02-01T15:45:25;6.90;94.00
49124;DHT22;48506;48.202;16.274;2023-02-01T15:47:53;6.80;93.70
49124;DHT22;48506;48.202;16.274;2023-02-01T15:50:20;6.80;93.80
49124;DHT22;48506;48.202;16.274;2023-02-01T15:52:49;6.80;93.60
49124;DHT22;48506;48.202;16.274;2023-02-01T15:57:48;6.80;93.50
49124;DHT22;48506;48.202;16.274;2023-02-01T16:00:42;6.80;93.40
49124;DHT22;48506;48.202;16.274;2023-02-01T16:03:35;6.80;93.10
49124;DHT22;48506;48.202;16.274;2023-02-01T16:06:05;6.80;93.10
49124;DHT22;48506;48.202;16.274;2023-02-01T16:08:32;6.80;93.20
49124;DHT22;48506;48.202;16.274;2023-02-01T16:13:35;6.80;92.80
49124;DHT22;48506;48.202;16.274;2023-02-01T16:16:02;6.80;93.00
49124;DHT22;48506;48.202;16.274;2023-02-01T16:18:29;6.90;93.10
49124;DHT22;48506;48.202;16.274;2023-02-01T16:20:55;6.90;92.90
49124;DHT22;48506;48.202;16.274;2023-02-01T16:23:21;6.90;93.20
49124;DHT22;48506;48.202;16.274;2023-02-01T16:25:47;6.90;93.10
49124;DHT22;48506;48.202;16.274;2023-02-01T16:28:13;6.90;93.30
49124;DHT22;48506;48.202;16.274;2023-02-01T16:30:39;6.90;93.20
49124;DHT22;48506;48.202;16.274;2023-02-01T16:33:09;7.00;93.30
49124;DHT22;48506;48.202;16.274;2023-02-01T16:35:38;7.00;93.20
49124;DHT22;48506;48.202;16.274;2023-02-01T16:38:15;7.00;93.20
49124;DHT22;48506;48.202;16.274;2023-02-01T16:40:45;7.00;93.40
49124;DHT22;48506;48.202;16.274;2023-02-01T16:43:17;6.90;93.50
49124;DHT22;48506;48.202;16.274;2023-02-01T16:45:45;6.90;93.80
49124;DHT22;48506;48.202;16.274;2023-02-01T16:48:26;6.90;93.80
49124;DHT22;48506;48.202;16.274;2023-02-01T16:50:55;6.90;93.80
49124;DHT22;48506;48.202;16.274;2023-02-01T16:53:25;6.90;93.90
49124;DHT22;48506;48.202;16.274;2023-02-01T16:55:54;6.80;94.00
49124;DHT22;48506;48.202;16.274;2023-02-01T16:58:21;6.80;94.10
49124;DHT22;48506;48.202;16.274;2023-02-01T17:00:49;6.80;94.30
49124;DHT22;48506;48.202;16.274;2023-02-01T17:03:19;6.90;94.40
49124;DHT22;48506;48.202;16.274;2023-02-01T17:05:52;6.90;94.40
49124;DHT22;48506;48.202;16.274;2023-02-01T17:08:41;6.90;94.50
49124;DHT22;48506;48.202;16.274;2023-02-01T17:11:10;6.90;94.70
49124;DHT22;48506;48.202;16.274;2023-02-01T17:13:37;6.90;94.70
49124;DHT22;48506;48.202;16.274;2023-02-01T17:19:04;6.90;94.70
49124;DHT22;48506;48.202;16.274;2023-02-01T17:21:45;6.90;94.90
49124;DHT22;48506;48.202;16.274;2023-02-01T17:24:16;6.90;95.10
49124;DHT22;48506;48.202;16.274;2023-02-01T17:26:43;6.80;95.20
49124;DHT22;48506;48.202;16.274;2023-02-01T17:29:11;6.80;95.20
49124;DHT22;48506;48.202;16.274;2023-02-01T17:31:42;6.80;95.50
49124;DHT22;48506;48.202;16.274;2023-02-01T17:34:10;6.80;95.50
49124;DHT22;48506;48.202;16.274;2023-02-01T17:36:37;6.80;95.50
49124;DHT22;48506;48.202;16.274;2023-02-01T17:39:06;6.80;95.50
49124;DHT22;48506;48.202;16.274;2023-02-01T17:41:33;6.70;95.70
49124;DHT22;48506;48.202;16.274;2023-02-01T17:44:01;6.70;95.60
49124;DHT22;48506;48.202;16.274;2023-02-01T17:46:27;6.70;95.60
49124;DHT22;48506;48.202;16.274;2023-02-01T17:48:56;6.70;95.60
49124;DHT22;48506;48.202;16.274;2023-02-01T17:51:26;6.70;95.70
49124;DHT22;48506;48.202;16.274;2023-02-01T17:53:55;6.60;95.80
49124;DHT22;48506;48.202;16.274;2023-02-01T17:56:23;6.60;95.70
49124;DHT22;48506;48.202;16.274;2023-02-01T17:58:50;6.60;95.80
49124;DHT22;48506;48.202;16.274;2023-02-01T18:01:22;6.60;95.80
49124;DHT22;48506;48.202;16.274;2023-02-01T18:03:49;6.60;95.70
49124;DHT22;48506;48.202;16.274;2023-02-01T18:06:18;6.60;95.50
49124;DHT22;48506;48.202;16.274;2023-02-01T18:08:44;6.60;95.50
49124;DHT22;48506;48.202;16.274;2023-02-01T18:11:13;6.60;95.50
49124;DHT22;48506;48.202;16.274;2023-02-01T18:13:40;6.60;95.30
49124;DHT22;48506;48.202;16.274;2023-02-01T18:16:23;6.60;95.30
49124;DHT22;48506;48.202;16.274;2023-02-01T18:18:50;6.60;95.30
49124;DHT22;48506;48.202;16.274;2023-02-01T18:21:19;6.60;95.10
49124;DHT22;48506;48.202;16.274;2023-02-01T18:23:46;6.60;95.10
49124;DHT22;48506;48.202;16.274;2023-02-01T18:26:15;6.60;95.40
49124;DHT22;48506;48.202;16.274;2023-02-01T18:28:43;6.60;95.20
49124;DHT22;48506;48.202;16.274;2023-02-01T18:31:23;6.60;95.00
49124;DHT22;48506;48.202;16.274;2023-02-01T18:33:52;6.70;94.90
49124;DHT22;48506;48.202;16.274;2023-02-01T18:36:19;6.70;94.60
49124;DHT22;48506;48.202;16.274;2023-02-01T18:38:46;6.70;94.60